createdAt,value
2022-11-28T00:01:13.619Z,1.97
2022-11-28T00:04:12.554Z,1.87
2022-11-28T00:07:11.988Z,1.88
2022-11-28T00:10:10.855Z,1.87
2022-11-28T00:13:07.859Z,1.87
2022-11-28T00:16:07.994Z,1.88
2022-11-28T00:19:07.221Z,1.87
2022-11-28T00:22:04.193Z,1.84
2022-11-28T00:25:01.059Z,1.91
2022-11-28T00:27:57.942Z,1.93
2022-11-28T00:30:54.878Z,1.83
2022-11-28T00:33:52.083Z,1.94
2022-11-28T00:36:49.110Z,1.98
2022-11-28T00:39:46.023Z,1.97
2022-11-28T00:42:42.912Z,1.95
2022-11-28T00:45:39.888Z,1.92
2022-11-28T00:48:37.378Z,1.97
2022-11-28T00:51:35.239Z,2.03
2022-11-28T00:54:32.308Z,1.92
2022-11-28T00:57:29.249Z,1.89
2022-11-28T01:00:26.123Z,1.89
2022-11-28T01:03:23.008Z,1.91
2022-11-28T01:06:33.276Z,1.86
2022-11-28T01:09:30.149Z,1.96
2022-11-28T01:12:27.032Z,1.91
2022-11-28T01:15:24.181Z,1.99
2022-11-28T01:18:21.269Z,2.04
2022-11-28T01:21:19.660Z,2.09
2022-11-28T01:24:17.759Z,2.09
2022-11-28T01:27:14.664Z,2.12
2022-11-28T01:30:11.728Z,2.20
2022-11-28T01:33:08.656Z,2.23
2022-11-28T01:36:06.034Z,2.36
2022-11-28T01:39:03.653Z,2.45
2022-11-28T01:42:00.994Z,2.34
2022-11-28T01:45:16.629Z,2.42
2022-11-28T01:48:22.750Z,2.31
2022-11-28T01:51:20.377Z,2.20
2022-11-28T01:54:20.669Z,2.15
2022-11-28T01:57:22.357Z,2.15
2022-11-28T02:00:21.880Z,2.14
2022-11-28T02:03:29.832Z,2.05
2022-11-28T02:06:27.516Z,2.08
2022-11-28T02:09:24.463Z,2.08
2022-11-28T02:12:50.568Z,2.05
2022-11-28T02:16:28.510Z,2.03
2022-11-28T02:20:05.460Z,2.12
2022-11-28T02:23:30.279Z,1.99
2022-11-28T02:27:30.620Z,2.03
2022-11-28T02:30:57.703Z,2.20
2022-11-28T02:34:10.085Z,2.30
2022-11-28T02:37:42.534Z,2.27
2022-11-28T02:41:10.460Z,2.26
2022-11-28T02:44:43.111Z,2.20
2022-11-28T02:47:56.128Z,2.16
2022-11-28T02:51:09.406Z,2.19
2022-11-28T02:54:11.241Z,2.13
2022-11-28T02:57:08.937Z,2.03
2022-11-28T03:00:23.978Z,2.16
2022-11-28T03:04:00.638Z,2.06
2022-11-28T03:07:23.425Z,2.12
2022-11-28T03:10:50.457Z,1.95
2022-11-28T03:14:52.144Z,2.00
2022-11-28T03:18:03.098Z,1.86
2022-11-28T03:21:50.069Z,1.84
2022-11-28T03:25:24.049Z,1.96
2022-11-28T03:28:40.586Z,1.88
2022-11-28T03:31:52.188Z,1.82
2022-11-28T03:34:55.988Z,1.84
2022-11-28T03:38:00.916Z,1.66
2022-11-28T03:41:07.672Z,1.86
2022-11-28T03:44:11.628Z,1.96
2022-11-28T03:47:09.717Z,1.78
2022-11-28T03:50:19.598Z,1.83
2022-11-28T03:53:35.004Z,1.77
2022-11-28T03:57:02.972Z,1.63
2022-11-28T04:00:08.130Z,1.65
2022-11-28T04:03:09.761Z,1.90
2022-11-28T04:06:27.929Z,1.83
2022-11-28T04:09:57.249Z,1.91
2022-11-28T04:13:18.858Z,1.83
2022-11-28T04:16:30.750Z,1.88
2022-11-28T04:19:35.928Z,1.95
2022-11-28T04:22:41.855Z,1.99
2022-11-28T04:25:44.843Z,1.90
2022-11-28T04:28:44.010Z,1.97
2022-11-28T04:31:44.783Z,2.00
2022-11-28T04:34:45.690Z,1.93
2022-11-28T04:37:48.806Z,1.90
2022-11-28T04:41:21.203Z,1.83
2022-11-28T04:44:34.524Z,1.79
2022-11-28T04:47:31.475Z,1.91
2022-11-28T04:50:59.690Z,1.95
2022-11-28T04:54:33.503Z,1.80
2022-11-28T04:57:41.502Z,1.97
2022-11-28T05:00:39.359Z,1.91
2022-11-28T05:03:42.298Z,1.73
2022-11-28T05:06:39.576Z,1.86
2022-11-28T05:09:36.965Z,1.85
2022-11-28T05:12:33.924Z,1.78
2022-11-28T05:15:30.843Z,1.74
2022-11-28T05:18:27.704Z,1.74
2022-11-28T05:21:24.690Z,1.78
2022-11-28T05:24:22.556Z,1.75
2022-11-28T05:27:19.539Z,1.71
2022-11-28T05:30:16.610Z,1.83
2022-11-28T05:33:13.481Z,1.95
2022-11-28T05:36:13.993Z,1.86
2022-11-28T05:39:10.826Z,1.66
2022-11-28T05:42:07.762Z,1.80
2022-11-28T05:45:05.513Z,1.77
2022-11-28T05:48:02.367Z,1.76
2022-11-28T05:50:59.202Z,1.77
2022-11-28T05:53:56.090Z,1.80
2022-11-28T05:56:52.995Z,1.69
2022-11-28T05:59:49.822Z,1.70
2022-11-28T06:02:46.671Z,1.60
2022-11-28T06:05:44.474Z,1.77
2022-11-28T06:08:42.582Z,1.61
2022-11-28T06:11:39.430Z,1.65
2022-11-28T06:14:37.462Z,1.75
2022-11-28T06:17:34.348Z,1.69
2022-11-28T06:20:31.212Z,1.69
2022-11-28T06:23:28.291Z,1.71
2022-11-28T06:26:26.932Z,1.80
2022-11-28T06:29:23.815Z,1.83
2022-11-28T06:32:22.272Z,2.19
2022-11-28T06:35:19.324Z,2.32
2022-11-28T06:38:16.176Z,2.17
2022-11-28T06:41:17.246Z,2.12
2022-11-28T06:44:16.122Z,2.12
2022-11-28T06:47:12.977Z,2.09
2022-11-28T06:50:10.638Z,2.16
2022-11-28T06:53:07.479Z,2.14
2022-11-28T06:56:11.394Z,2.20
2022-11-28T06:59:11.377Z,2.23
2022-11-28T07:02:10.163Z,2.19
2022-11-28T07:05:08.749Z,2.18
2022-11-28T07:08:06.508Z,2.16
2022-11-28T07:11:22.332Z,2.16
2022-11-28T07:14:19.419Z,2.16
2022-11-28T07:17:16.368Z,2.19
2022-11-28T07:20:13.959Z,2.16
2022-11-28T07:23:10.790Z,2.15
2022-11-28T07:26:08.205Z,2.21
2022-11-28T07:29:07.025Z,2.27
2022-11-28T07:32:06.308Z,2.19
2022-11-28T07:35:04.551Z,2.20
2022-11-28T07:38:01.429Z,2.22
2022-11-28T07:41:13.568Z,2.32
2022-11-28T07:44:11.651Z,2.39
2022-11-28T07:47:08.644Z,2.40
2022-11-28T07:50:06.550Z,2.46
2022-11-28T07:53:07.163Z,2.51
2022-11-28T07:56:07.315Z,2.55
2022-11-28T07:59:05.204Z,2.52
2022-11-28T08:02:02.659Z,2.52
2022-11-28T08:05:00.017Z,2.45
2022-11-28T08:07:56.966Z,2.53
2022-11-28T08:11:02.900Z,2.64
2022-11-28T08:14:00.369Z,2.61
2022-11-28T08:16:57.253Z,2.62
2022-11-28T08:19:54.140Z,2.67
2022-11-28T08:22:51.107Z,2.75
2022-11-28T08:25:47.956Z,2.85
2022-11-28T08:28:45.255Z,2.88
2022-11-28T08:31:42.399Z,2.92
2022-11-28T08:34:39.296Z,2.80
2022-11-28T08:37:36.142Z,2.91
2022-11-28T08:40:33.246Z,2.95
2022-11-28T08:43:30.359Z,2.88
2022-11-28T08:46:27.312Z,2.93
2022-11-28T08:49:24.234Z,3.11
2022-11-28T08:52:22.132Z,3.13
2022-11-28T08:55:22.231Z,3.12
2022-11-28T08:58:22.150Z,3.25
2022-11-28T09:01:25.106Z,3.12
2022-11-28T09:04:23.886Z,3.08
2022-11-28T09:07:20.984Z,3.11
2022-11-28T09:10:18.097Z,3.17
2022-11-28T09:13:16.005Z,3.23
2022-11-28T09:16:13.435Z,3.19
2022-11-28T09:19:10.842Z,3.24
2022-11-28T09:22:08.056Z,3.30
2022-11-28T09:25:05.476Z,3.26
2022-11-28T09:28:02.600Z,3.32
2022-11-28T09:31:04.786Z,3.31
2022-11-28T09:34:03.480Z,3.41
2022-11-28T09:37:04.649Z,3.44
2022-11-28T09:40:17.313Z,3.52
2022-11-28T09:43:41.940Z,3.41
2022-11-28T09:46:39.613Z,3.47
2022-11-28T09:49:46.667Z,3.45
2022-11-28T09:53:23.360Z,3.43
2022-11-28T09:56:22.642Z,3.61
2022-11-28T09:59:30.522Z,3.56
2022-11-28T10:02:49.880Z,3.52
2022-11-28T10:06:25.428Z,3.69
2022-11-28T10:09:45.497Z,3.56
2022-11-28T10:13:16.275Z,3.62
2022-11-28T10:16:35.203Z,3.63
2022-11-28T10:20:10.666Z,3.62
2022-11-28T10:23:43.763Z,3.47
2022-11-28T10:26:48.033Z,3.57
2022-11-28T10:30:03.003Z,3.67
2022-11-28T10:33:41.549Z,3.76
2022-11-28T10:37:16.009Z,3.63
2022-11-28T10:40:24.468Z,3.60
2022-11-28T10:43:51.462Z,3.72
2022-11-28T10:47:07.357Z,3.76
2022-11-28T10:50:33.678Z,3.54
2022-11-28T10:53:30.374Z,3.59
2022-11-28T10:56:51.394Z,3.49
2022-11-28T11:00:13.317Z,3.54
2022-11-28T11:03:15.428Z,3.54
2022-11-28T11:06:12.311Z,3.49
2022-11-28T11:09:13.361Z,3.76
2022-11-28T11:12:26.233Z,3.70
2022-11-28T11:15:29.978Z,3.64
2022-11-28T11:18:44.536Z,3.70
2022-11-28T11:21:41.382Z,3.94
2022-11-28T11:24:38.393Z,3.76
2022-11-28T11:27:37.940Z,3.95
2022-11-28T11:30:42.790Z,3.72
2022-11-28T11:33:40.167Z,3.86
2022-11-28T11:36:37.658Z,3.55
2022-11-28T11:39:45.828Z,3.68
2022-11-28T11:42:54.558Z,3.82
2022-11-28T11:46:15.810Z,3.80
2022-11-28T11:49:29.468Z,3.88
2022-11-28T11:52:27.523Z,3.90
2022-11-28T11:55:25.422Z,3.86
2022-11-28T11:58:52.145Z,3.94
2022-11-28T12:01:57.199Z,3.70
2022-11-28T12:05:21.780Z,3.83
2022-11-28T12:08:35.158Z,4.02
2022-11-28T12:11:47.104Z,3.98
2022-11-28T12:14:44.743Z,4.02
2022-11-28T12:18:16.717Z,4.00
2022-11-28T12:21:40.524Z,4.34
2022-11-28T12:24:52.105Z,4.20
2022-11-28T12:28:31.901Z,4.20
2022-11-28T12:31:55.305Z,4.06
2022-11-28T12:35:23.704Z,4.05
2022-11-28T12:38:56.092Z,4.06
2022-11-28T12:42:53.668Z,3.92
2022-11-28T12:46:16.110Z,3.94
2022-11-28T12:49:23.253Z,4.13
2022-11-28T12:52:55.771Z,3.98
2022-11-28T12:56:20.143Z,4.19
2022-11-28T12:59:19.825Z,4.12
2022-11-28T13:03:03.434Z,4.21
2022-11-28T13:06:27.301Z,4.22
2022-11-28T13:09:51.978Z,4.02
2022-11-28T13:13:01.038Z,3.97
2022-11-28T13:16:41.687Z,4.03
2022-11-28T13:19:48.621Z,4.14
2022-11-28T13:23:16.316Z,3.85
2022-11-28T13:26:46.604Z,3.73
2022-11-28T13:30:16.895Z,3.70
2022-11-28T13:34:04.208Z,3.83
2022-11-28T13:40:58.743Z,3.83
2022-11-28T13:44:05.604Z,3.88
2022-11-28T13:47:21.216Z,4.02
2022-11-28T13:50:29.563Z,3.61
2022-11-28T13:53:26.736Z,3.67
2022-11-28T13:56:27.048Z,3.75
2022-11-28T13:59:25.438Z,3.93
2022-11-28T14:02:47.914Z,3.71
2022-11-28T14:05:45.441Z,3.95
2022-11-28T14:08:46.250Z,3.88
2022-11-28T14:11:55.121Z,3.74
2022-11-28T14:15:09.851Z,3.71
2022-11-28T14:18:55.800Z,3.68
2022-11-28T14:22:16.908Z,3.58
2022-11-28T14:25:45.908Z,3.53
2022-11-28T14:28:44.670Z,3.60
2022-11-28T14:32:06.681Z,3.80
2022-11-28T14:35:11.775Z,3.84
2022-11-28T14:38:31.404Z,3.77
2022-11-28T14:41:28.384Z,3.60
2022-11-28T14:44:52.536Z,3.34
2022-11-28T14:48:30.644Z,3.47
2022-11-28T14:51:45.894Z,3.32
2022-11-28T14:54:44.025Z,3.34
2022-11-28T14:58:05.223Z,3.10
2022-11-28T15:01:13.083Z,2.99
2022-11-28T15:04:27.631Z,3.12
2022-11-28T15:07:37.926Z,3.02
2022-11-28T15:11:08.010Z,2.95
2022-11-28T15:14:23.464Z,2.75
2022-11-28T15:17:30.592Z,2.74
2022-11-28T15:20:38.954Z,2.69
2022-11-28T15:23:38.456Z,2.75
2022-11-28T15:26:35.315Z,2.55
2022-11-28T15:29:32.184Z,2.65
2022-11-28T15:32:31.600Z,2.54
2022-11-28T15:35:29.101Z,2.79
2022-11-28T15:38:28.312Z,2.85
2022-11-28T15:41:27.666Z,2.68
2022-11-28T15:44:24.793Z,2.91
2022-11-28T15:47:22.191Z,2.75
2022-11-28T15:50:27.185Z,2.76
2022-11-28T15:53:24.076Z,2.99
2022-11-28T15:56:20.991Z,3.08
2022-11-28T15:59:17.840Z,3.11
2022-11-28T16:02:34.946Z,3.24
2022-11-28T16:05:31.954Z,3.21
2022-11-28T16:08:36.765Z,3.04
2022-11-28T16:11:35.528Z,3.16
2022-11-28T16:14:36.055Z,3.19
2022-11-28T16:17:34.400Z,3.32
2022-11-28T16:20:37.155Z,2.99
2022-11-28T16:23:37.690Z,3.10
2022-11-28T16:26:37.248Z,3.09
2022-11-28T16:29:36.486Z,3.12
2022-11-28T16:32:39.299Z,3.11
2022-11-28T16:35:40.412Z,3.21
2022-11-28T16:38:38.544Z,3.18
2022-11-28T16:41:36.592Z,3.14
2022-11-28T16:44:33.715Z,3.09
2022-11-28T16:47:33.098Z,3.27
2022-11-28T16:50:29.962Z,3.18
2022-11-28T16:53:45.979Z,3.05
2022-11-28T16:56:44.497Z,3.00
2022-11-28T16:59:42.937Z,3.05
2022-11-28T17:02:39.908Z,3.00
2022-11-28T17:05:36.741Z,2.95
2022-11-28T17:08:33.595Z,2.91
2022-11-28T17:11:34.187Z,2.99
2022-11-28T17:14:31.042Z,3.05
2022-11-28T17:17:29.906Z,2.95
2022-11-28T17:20:26.754Z,2.94
2022-11-28T17:23:25.238Z,2.96
2022-11-28T17:26:22.071Z,2.82
2022-11-28T17:29:19.707Z,2.78
2022-11-28T17:32:16.622Z,2.81
2022-11-28T17:35:20.030Z,2.91
2022-11-28T17:38:17.475Z,3.03
2022-11-28T17:41:14.782Z,3.07
2022-11-28T17:44:23.331Z,3.00
2022-11-28T17:47:20.248Z,2.99
2022-11-28T17:50:17.748Z,3.04
2022-11-28T17:53:20.388Z,3.21
2022-11-28T17:56:17.367Z,2.98
2022-11-28T17:59:16.597Z,3.01
2022-11-28T18:02:13.527Z,3.06
2022-11-28T18:05:10.738Z,3.08
2022-11-28T18:08:07.748Z,3.08
2022-11-28T18:11:06.885Z,3.02
2022-11-28T18:14:03.801Z,3.08
2022-11-28T18:17:00.675Z,3.09
2022-11-28T18:19:58.051Z,3.06
2022-11-28T18:22:56.759Z,3.21
2022-11-28T18:25:53.587Z,3.19
2022-11-28T18:28:51.313Z,3.11
2022-11-28T18:31:48.217Z,3.12
2022-11-28T18:34:45.125Z,3.25
2022-11-28T18:37:41.991Z,3.07
2022-11-28T18:40:39.232Z,3.17
2022-11-28T18:43:37.150Z,3.10
2022-11-28T18:46:35.902Z,3.03
2022-11-28T18:49:32.743Z,2.96
2022-11-28T18:52:29.590Z,3.02
2022-11-28T18:55:26.480Z,3.09
2022-11-28T18:58:23.377Z,3.04
2022-11-28T19:01:25.448Z,2.97
2022-11-28T19:04:22.454Z,2.89
2022-11-28T19:07:19.339Z,3.08
2022-11-28T19:10:16.414Z,3.02
2022-11-28T19:13:13.305Z,2.98
2022-11-28T19:16:17.614Z,3.03
2022-11-28T19:19:16.639Z,2.95
2022-11-28T19:22:13.491Z,2.93
2022-11-28T19:25:10.357Z,2.93
2022-11-28T19:28:07.210Z,3.02
2022-11-28T19:31:17.203Z,3.02
2022-11-28T19:34:18.672Z,3.01
2022-11-28T19:37:15.882Z,2.99
2022-11-28T19:40:13.510Z,2.93
2022-11-28T19:43:10.372Z,2.99
2022-11-28T19:46:08.651Z,3.02
2022-11-28T19:49:07.368Z,3.02
2022-11-28T19:52:04.532Z,3.05
2022-11-28T19:55:01.467Z,3.02
2022-11-28T19:57:58.311Z,3.09
2022-11-28T20:01:02.585Z,3.00
2022-11-28T20:03:59.841Z,3.03
2022-11-28T20:06:56.663Z,3.04
2022-11-28T20:09:53.521Z,3.01
2022-11-28T20:12:50.585Z,2.99
2022-11-28T20:15:47.457Z,3.08
2022-11-28T20:18:45.042Z,3.08
2022-11-28T20:21:42.032Z,3.05
2022-11-28T20:24:38.860Z,3.13
2022-11-28T20:27:35.718Z,3.16
2022-11-28T20:30:32.542Z,3.11
2022-11-28T20:33:30.146Z,3.12
2022-11-28T20:36:29.271Z,2.99
2022-11-28T20:39:26.371Z,2.97
2022-11-28T20:42:23.791Z,3.05
2022-11-28T20:45:20.608Z,2.95
2022-11-28T20:48:17.695Z,3.07
2022-11-28T20:51:24.920Z,3.05
2022-11-28T20:54:21.806Z,3.08
2022-11-28T20:57:21.798Z,3.04
2022-11-28T21:00:24.982Z,3.05
2022-11-28T21:03:23.746Z,3.02
2022-11-28T21:06:21.754Z,2.87
2022-11-28T21:09:20.483Z,3.03
2022-11-28T21:12:20.979Z,3.10
2022-11-28T21:15:18.184Z,3.02
2022-11-28T21:18:16.437Z,2.99
2022-11-28T21:21:17.601Z,2.99
2022-11-28T21:24:14.563Z,3.09
2022-11-28T21:27:11.403Z,3.03
2022-11-28T21:30:10.097Z,2.97
2022-11-28T21:33:06.988Z,3.01
2022-11-28T21:36:06.069Z,2.97
2022-11-28T21:39:02.941Z,2.99
2022-11-28T21:42:02.212Z,3.11
2022-11-28T21:44:59.057Z,2.95
2022-11-28T21:47:55.900Z,2.97
2022-11-28T21:50:52.722Z,3.00
2022-11-28T21:53:50.200Z,3.09
2022-11-28T21:56:47.049Z,3.13
2022-11-28T21:59:44.317Z,3.09
2022-11-28T22:02:41.402Z,3.11
2022-11-28T22:05:38.271Z,2.96
2022-11-28T22:08:36.039Z,2.98
2022-11-28T22:11:32.935Z,3.00
2022-11-28T22:17:50.872Z,3.01
2022-11-28T22:20:51.637Z,2.98
2022-11-28T22:23:50.690Z,3.04
2022-11-28T22:26:47.546Z,3.06
2022-11-28T22:29:45.204Z,3.10
2022-11-28T22:32:42.050Z,3.17
2022-11-28T22:35:38.904Z,3.10
2022-11-28T22:38:35.808Z,3.05
2022-11-28T22:41:32.659Z,2.97
2022-11-28T22:44:29.528Z,2.92
2022-11-28T22:47:26.459Z,3.07
2022-11-28T22:50:23.324Z,3.06
2022-11-28T22:53:20.200Z,3.07
2022-11-28T22:56:17.063Z,3.05
2022-11-28T22:59:15.896Z,3.08
2022-11-28T23:02:12.845Z,3.09
2022-11-28T23:05:09.796Z,3.08
2022-11-28T23:08:07.610Z,3.09
2022-11-28T23:11:23.181Z,3.07
2022-11-28T23:14:20.108Z,3.00
2022-11-28T23:17:16.956Z,3.04
2022-11-28T23:20:14.677Z,3.25
2022-11-28T23:23:11.507Z,3.18
2022-11-28T23:26:18.888Z,3.11
2022-11-28T23:29:17.102Z,3.01
2022-11-28T23:32:13.971Z,3.06
2022-11-28T23:35:10.815Z,3.09
2022-11-28T23:38:07.676Z,3.03
2022-11-28T23:41:04.541Z,2.97
2022-11-28T23:44:01.752Z,2.98
2022-11-28T23:46:58.772Z,2.97
2022-11-28T23:49:55.616Z,3.17
2022-11-28T23:52:52.478Z,3.00
2022-11-28T23:55:49.324Z,3.10
2022-11-28T23:58:46.664Z,3.06
